Time;durP1;ratioP1;P1;durP2;ratioP2;P2;SDS_P1;SDS_P2;PMS_P1;PMS_P2;Temp;Humidity;BMP_temperature;BMP_pressure;BME280_temperature;BME280_humidity;BME280_pressure;Samples;Min_cycle;Max_cycle;Signal;HPM_P1;HPM_P2
2024/01/09 00:01:43;;;;;;;0.20;0.20;;;;;;;31.96;18.64;101575.84;7397914;19;20043;-56
2024/01/09 00:04:12;;;;;;;0.20;0.20;;;;;;;31.81;18.86;101576.69;7393573;19;20070;-57
2024/01/09 00:06:38;;;;;;;0.10;0.10;;;;;;;31.79;18.59;101567.84;7391815;19;20297;-57
2024/01/09 00:09:04;;;;;;;0.13;0.13;;;;;;;31.56;18.70;101578.72;7391922;19;20015;-57
2024/01/09 00:11:30;;;;;;;0.10;0.10;;;;;;;31.23;18.63;101569.19;7396495;19;20041;-56
2024/01/09 00:13:56;;;;;;;0.47;0.47;;;;;;;31.40;18.73;101572.22;7392051;19;20014;-56
2024/01/09 00:16:22;;;;;;;11.95;0.90;;;;;;;31.51;18.70;101576.81;7393545;19;20014;-56
2024/01/09 00:18:54;;;;;;;0.43;0.15;;;;;;;31.47;18.91;101564.16;7392041;19;20010;-56
2024/01/09 00:21:21;;;;;;;12.25;1.05;;;;;;;31.27;18.95;101568.81;7395935;19;20032;-56
2024/01/09 00:23:47;;;;;;;0.30;0.30;;;;;;;31.76;18.67;101562.47;7392230;19;20033;-56
2024/01/09 00:26:13;;;;;;;15.52;0.60;;;;;;;32.73;17.90;101561.03;7393548;19;20014;-56
2024/01/09 00:28:40;;;;;;;0.10;0.10;;;;;;;32.32;18.69;101573.28;7392923;19;20117;-56
2024/01/09 00:31:06;;;;;;;1.85;0.50;;;;;;;31.65;18.44;101571.56;7395624;19;20011;-58
2024/01/09 00:33:33;;;;;;;0.30;0.30;;;;;;;31.55;18.94;101565.66;7391995;19;20007;-56
2024/01/09 00:35:59;;;;;;;0.10;0.10;;;;;;;31.82;18.59;101569.56;7390038;19;20071;-56
2024/01/09 00:38:25;;;;;;;0.40;0.40;;;;;;;32.01;18.41;101566.22;7392147;19;20006;-57
2024/01/09 00:40:51;;;;;;;0.20;0.20;;;;;;;30.67;19.02;101570.44;7395204;19;20010;-57
2024/01/09 00:43:17;;;;;;;0.30;0.30;;;;;;;30.19;19.12;101562.16;7391944;19;20015;-56
2024/01/09 00:45:43;;;;;;;0.20;0.20;;;;;;;30.34;19.29;101568.69;7392915;19;20034;-56
2024/01/09 00:48:10;;;;;;;5.65;0.25;;;;;;;29.04;19.79;101565.84;7391606;19;20014;-57
2024/01/09 00:50:37;;;;;;;0.20;0.20;;;;;;;28.85;20.43;101567.44;7393930;19;20010;-56
2024/01/09 00:53:04;;;;;;;0.20;0.20;;;;;;;29.30;20.19;101567.00;7391700;19;20007;-56
2024/01/09 00:55:30;;;;;;;0.15;0.15;;;;;;;29.22;20.19;101564.09;7391051;19;20021;-56
2024/01/09 00:57:56;;;;;;;1.02;0.85;;;;;;;30.54;19.20;101561.22;7391499;19;20052;-56
2024/01/09 01:00:22;;;;;;;0.13;0.13;;;;;;;30.67;19.23;101556.03;7392462;19;20010;-58
2024/01/09 01:02:49;;;;;;;0.10;0.10;;;;;;;30.76;19.47;101560.44;7392158;19;20027;-57
2024/01/09 01:05:15;;;;;;;0.55;0.30;;;;;;;30.76;19.17;101563.31;7391794;19;20053;-57
2024/01/09 01:07:42;;;;;;;0.52;0.52;;;;;;;31.09;19.20;101565.03;7398718;19;20424;-57
2024/01/09 01:10:13;;;;;;;0.20;0.20;;;;;;;31.17;18.93;101557.13;7398048;19;20037;-57
2024/01/09 01:12:39;;;;;;;0.47;0.47;;;;;;;31.89;18.54;101562.22;7402909;19;21051;-57
2024/01/09 01:15:06;;;;;;;0.20;0.20;;;;;;;25.52;22.03;101554.13;7396796;19;20014;-57
2024/01/09 01:17:32;;;;;;;0.57;0.57;;;;;;;26.34;21.85;101567.69;7402778;19;20018;-57
2024/01/09 01:19:58;;;;;;;0.25;0.20;;;;;;;27.64;21.20;101563.38;7396608;19;20346;-57
2024/01/09 01:22:24;;;;;;;4.15;0.35;;;;;;;25.58;22.19;101566.22;7400838;19;20023;-57
2024/01/09 01:24:50;;;;;;;1.45;0.85;;;;;;;23.85;23.87;101574.09;7397812;19;20015;-57
2024/01/09 01:27:17;;;;;;;0.20;0.20;;;;;;;24.56;23.20;101554.91;7398367;19;20033;-57
2024/01/09 01:29:43;;;;;;;0.30;0.30;;;;;;;25.01;22.80;101563.81;7398184;19;20371;-57
2024/01/09 01:32:10;;;;;;;0.32;0.32;;;;;;;22.54;25.10;101563.41;7401489;19;20018;-57
2024/01/09 01:34:39;;;;;;;0.40;0.40;;;;;;;22.36;25.04;101561.09;7397609;19;20056;-57
2024/01/09 01:37:05;;;;;;;0.17;0.17;;;;;;;24.23;24.04;101551.59;7398063;19;20007;-57
2024/01/09 01:39:31;;;;;;;0.13;0.13;;;;;;;22.83;24.93;101564.16;7398773;19;20022;-57
2024/01/09 01:41:58;;;;;;;0.10;0.10;;;;;;;22.75;25.06;101568.81;7400684;19;20070;-57
2024/01/09 01:44:24;;;;;;;0.10;0.10;;;;;;;22.58;25.43;101566.78;7398094;19;20022;-57
2024/01/09 01:46:51;;;;;;;0.10;0.10;;;;;;;22.05;25.26;101564.16;7400571;19;20074;-57
2024/01/09 01:49:19;;;;;;;0.10;0.10;;;;;;;23.03;24.72;101564.63;7397872;19;20018;-57
2024/01/09 01:51:50;;;;;;;9.43;0.73;;;;;;;24.05;24.35;101559.50;7398952;19;20017;-57
2024/01/09 01:54:17;;;;;;;0.10;0.10;;;;;;;24.46;23.91;101547.25;7396380;19;20023;-57
2024/01/09 01:56:46;;;;;;;0.20;0.20;;;;;;;23.02;24.78;101550.94;7397124;19;20070;-57
2024/01/09 01:59:15;;;;;;;0.10;0.10;;;;;;;23.52;24.36;101548.69;7397664;19;20007;-57
2024/01/09 02:01:45;;;;;;;0.20;0.20;;;;;;;20.36;27.21;101558.72;7398529;19;20493;-57
2024/01/09 02:04:12;;;;;;;0.13;0.13;;;;;;;19.93;27.63;101560.63;7397136;19;20015;-57
2024/01/09 02:06:39;;;;;;;0.50;0.50;;;;;;;21.10;26.38;101551.75;7397061;19;20729;-57
2024/01/09 02:09:05;;;;;;;13.88;1.40;;;;;;;20.31;27.08;101550.97;7396899;19;20014;-57
2024/01/09 02:11:32;;;;;;;0.10;0.10;;;;;;;20.12;27.41;101547.69;7398311;19;20026;-57
2024/01/09 02:13:58;;;;;;;0.20;0.20;;;;;;;21.18;26.75;101548.44;7396275;19;20018;-57
2024/01/09 02:16:24;;;;;;;0.20;0.20;;;;;;;20.53;27.27;101545.44;7398626;19;20028;-57
2024/01/09 02:18:51;;;;;;;0.80;0.80;;;;;;;21.88;26.18;101543.53;7397323;19;20062;-57
2024/01/09 02:21:17;;;;;;;0.30;0.20;;;;;;;21.33;26.37;101549.03;7397053;19;20047;-57
2024/01/09 02:23:44;;;;;;;0.10;0.10;;;;;;;20.67;26.79;101549.41;7396839;19;20019;-57
2024/01/09 02:26:12;;;;;;;0.90;0.70;;;;;;;20.77;26.94;101548.72;7396241;19;20522;-57
2024/01/09 02:28:52;;;;;;;0.10;0.03;;;;;;;20.74;27.07;101546.91;7395284;19;20356;-57
2024/01/09 02:31:18;;;;;;;3.95;0.73;;;;;;;20.25;27.48;101550.13;7396824;19;20014;-57
2024/01/09 02:33:45;;;;;;;8.40;0.70;;;;;;;22.90;25.76;101557.94;7395833;19;20010;-57
2024/01/09 02:36:12;;;;;;;0.15;0.15;;;;;;;20.22;27.89;101548.31;7394540;19;20015;-57
2024/01/09 02:38:38;;;;;;;0.10;0.10;;;;;;;20.43;27.72;101552.59;7397584;19;20026;-57
2024/01/09 02:41:05;;;;;;;1.27;0.30;;;;;;;20.03;27.75;101547.09;7395789;19;20042;-57
2024/01/09 02:43:31;;;;;;;0.10;0.10;;;;;;;20.54;27.31;101558.34;7395432;19;20011;-57
2024/01/09 02:45:57;;;;;;;0.30;0.30;;;;;;;20.86;27.31;101550.56;7397233;19;20014;-57
2024/01/09 02:48:23;;;;;;;0.13;0.13;;;;;;;20.39;27.86;101552.06;7395303;19;20041;-57
2024/01/09 02:50:49;;;;;;;0.30;0.30;;;;;;;20.50;27.33;101551.34;7395980;19;20478;-57
2024/01/09 02:53:16;;;;;;;0.10;0.10;;;;;;;20.62;27.52;101548.09;7395123;19;20019;-57
2024/01/09 02:55:42;;;;;;;0.10;0.10;;;;;;;20.80;27.46;101546.91;7393731;19;20011;-57
2024/01/09 02:58:08;;;;;;;0.22;0.08;;;;;;;20.90;27.40;101546.22;7395551;19;20011;-57
2024/01/09 03:00:34;;;;;;;0.30;0.28;;;;;;;22.92;25.42;101541.16;7395600;19;20381;-58
2024/01/09 03:03:00;;;;;;;0.55;0.55;;;;;;;20.96;27.23;101537.75;7399888;19;20010;-57
2024/01/09 03:05:26;;;;;;;2.40;0.40;;;;;;;20.91;27.05;101536.44;7394563;19;20013;-57
2024/01/09 03:07:52;;;;;;;0.20;0.20;;;;;;;24.40;24.25;101532.31;7394206;19;20045;-57
2024/01/09 03:10:18;;;;;;;0.20;0.20;;;;;;;24.87;24.29;101525.09;7394695;19;20017;-57
2024/01/09 03:12:44;;;;;;;0.25;0.25;;;;;;;23.55;25.01;101538.31;7398796;19;20020;-57
2024/01/09 03:15:11;;;;;;;0.10;0.10;;;;;;;23.04;24.99;101534.91;7393894;19;20014;-57
2024/01/09 03:17:37;;;;;;;1.38;0.57;;;;;;;21.64;26.20;101540.34;7394743;19;20357;-57
2024/01/09 03:20:03;;;;;;;0.75;0.75;;;;;;;21.95;26.07;101537.34;7394299;19;20534;-57
2024/01/09 03:22:29;;;;;;;5.00;2.00;;;;;;;21.09;26.91;101538.88;7397630;19;20484;-57
2024/01/09 03:24:56;;;;;;;0.20;0.20;;;;;;;23.81;24.66;101530.16;7394599;19;20014;-57
2024/01/09 03:27:22;;;;;;;0.13;0.13;;;;;;;22.13;25.80;101536.84;7394036;19;20030;-57
2024/01/09 03:29:48;;;;;;;0.77;0.77;;;;;;;20.94;27.02;101534.66;7391110;19;20033;-57
2024/01/09 03:32:14;;;;;;;0.95;0.70;;;;;;;22.04;26.15;101527.81;7395957;19;20013;-57
2024/01/09 03:34:40;;;;;;;1.45;0.32;;;;;;;23.22;25.20;101533.53;7393619;19;20041;-57
2024/01/09 03:37:07;;;;;;;0.10;0.00;;;;;;;23.41;24.79;101528.84;7394368;19;20021;-57
2024/01/09 03:39:33;;;;;;;0.38;0.30;;;;;;;23.12;25.31;101532.31;7395185;19;20040;-57
2024/01/09 03:41:59;;;;;;;0.65;0.65;;;;;;;25.74;23.38;101509.47;7394150;19;20010;-57
2024/01/09 03:44:25;;;;;;;0.95;0.38;;;;;;;24.02;24.46;101520.69;7392896;19;20021;-57
2024/01/09 03:46:51;;;;;;;0.20;0.20;;;;;;;23.88;24.64;101527.53;7395960;19;20014;-57
2024/01/09 03:49:17;;;;;;;0.20;0.20;;;;;;;24.27;24.07;101517.91;7393312;19;20350;-57
2024/01/09 03:51:44;;;;;;;1.10;0.55;;;;;;;24.46;24.30;101522.41;7393511;19;20010;-57
2024/01/09 03:54:10;;;;;;;11.70;0.50;;;;;;;24.43;24.23;101520.59;7398311;19;20017;-57
2024/01/09 03:56:36;;;;;;;0.63;0.63;;;;;;;24.00;24.33;101526.13;7394307;19;20010;-57
2024/01/09 03:59:02;;;;;;;0.52;0.52;;;;;;;24.07;24.16;101534.13;7393460;19;20038;-57
2024/01/09 04:01:28;;;;;;;0.20;0.20;;;;;;;23.97;24.67;101532.88;7393334;19;20027;-57
2024/01/09 04:03:56;;;;;;;0.20;0.20;;;;;;;24.02;24.32;101525.59;7396941;19;20014;-57
2024/01/09 04:06:22;;;;;;;0.10;0.10;;;;;;;23.79;24.46;101536.38;7394350;19;20410;-57
2024/01/09 04:08:48;;;;;;;16.67;1.00;;;;;;;24.13;24.34;101531.22;7393666;19;20018;-57
2024/01/09 04:11:14;;;;;;;0.25;0.25;;;;;;;23.95;24.22;101532.63;7394227;19;20015;-57
2024/01/09 04:13:41;;;;;;;12.07;1.75;;;;;;;23.61;24.42;101537.00;7395114;19;20332;-57
2024/01/09 04:16:11;;;;;;;0.10;0.10;;;;;;;24.09;24.45;101547.81;7392248;19;20330;-57
2024/01/09 04:18:37;;;;;;;0.10;0.10;;;;;;;23.04;24.58;101543.44;7393345;19;20708;-57
2024/01/09 04:21:04;;;;;;;0.10;0.10;;;;;;;21.24;26.33;101557.75;7393510;19;20015;-57
2024/01/09 04:23:30;;;;;;;0.10;0.10;;;;;;;22.44;25.61;101552.81;7395429;19;20469;-57
2024/01/09 04:25:56;;;;;;;2.60;1.05;;;;;;;22.92;25.29;101544.00;7392677;19;20033;-57
2024/01/09 04:28:23;;;;;;;0.15;0.15;;;;;;;23.19;25.26;101551.66;7392341;19;20350;-57
2024/01/09 04:30:49;;;;;;;0.10;0.10;;;;;;;23.28;25.12;101540.00;7392399;19;20034;-57
2024/01/09 04:33:15;;;;;;;0.10;0.10;;;;;;;23.39;24.88;101544.91;7392801;19;20013;-57
2024/01/09 04:35:41;;;;;;;0.95;0.85;;;;;;;23.92;24.62;101542.25;7391052;19;20503;-57
2024/01/09 04:38:07;;;;;;;1.75;0.85;;;;;;;23.70;24.68;101533.84;7391604;19;20013;-57
2024/01/09 04:40:33;;;;;;;1.27;0.28;;;;;;;24.41;24.32;101531.75;7392535;19;20014;-58
2024/01/09 04:43:00;;;;;;;0.40;0.40;;;;;;;24.66;23.76;101533.34;7399459;19;20031;-57
2024/01/09 04:45:26;;;;;;;0.32;0.32;;;;;;;24.65;23.88;101536.72;7398916;19;20023;-57
2024/01/09 04:47:52;;;;;;;3.92;0.52;;;;;;;25.12;23.58;101546.56;7403690;19;20387;-57
2024/01/09 04:50:18;;;;;;;0.65;0.65;;;;;;;23.72;24.21;101541.84;7399938;19;20014;-57
2024/01/09 04:52:44;;;;;;;0.20;0.20;;;;;;;20.75;26.46;101534.28;7400698;19;20018;-57
2024/01/09 04:55:10;;;;;;;1.00;0.30;;;;;;;19.71;28.01;101548.31;7403070;19;20006;-57
2024/01/09 04:57:36;;;;;;;1.17;0.70;;;;;;;19.85;27.95;101544.59;7399780;19;20014;-57
2024/01/09 05:00:04;;;;;;;0.10;0.08;;;;;;;19.97;27.56;101537.75;7399770;19;20097;-57
2024/01/09 05:02:30;;;;;;;0.20;0.20;;;;;;;19.93;27.83;101542.88;7399915;19;20015;-57
2024/01/09 05:04:56;;;;;;;0.50;0.50;;;;;;;19.17;28.28;101549.94;7403321;19;20011;-57
2024/01/09 05:07:22;;;;;;;0.10;0.10;;;;;;;19.05;28.85;101546.22;7398145;19;20018;-57
2024/01/09 05:09:49;;;;;;;18.40;1.27;;;;;;;19.75;27.82;101554.53;7398783;19;20010;-57
2024/01/09 05:12:15;;;;;;;0.10;0.10;;;;;;;18.55;29.17;101556.00;7398471;19;20069;-57
2024/01/09 05:14:41;;;;;;;0.10;0.10;;;;;;;18.33;29.13;101561.25;7398450;19;20018;-57
2024/01/09 05:17:08;;;;;;;0.10;0.10;;;;;;;17.85;29.72;101555.84;7401910;19;20041;-57
2024/01/09 05:19:34;;;;;;;0.77;0.20;;;;;;;18.71;29.29;101559.06;7397815;19;20021;-57
2024/01/09 05:22:00;;;;;;;0.20;0.20;;;;;;;18.00;30.03;101556.63;7399158;19;20066;-57
2024/01/09 05:24:26;;;;;;;1.55;0.35;;;;;;;18.81;29.38;101565.38;7401515;19;20053;-57
2024/01/09 05:26:52;;;;;;;0.75;0.22;;;;;;;19.00;29.18;101563.06;7399520;19;20014;-57
2024/01/09 05:29:18;;;;;;;0.20;0.20;;;;;;;18.44;29.77;101558.63;7398215;19;20024;-57
2024/01/09 05:31:45;;;;;;;0.35;0.35;;;;;;;17.62;30.71;101561.53;7398067;19;20487;-57
2024/01/09 05:34:11;;;;;;;0.20;0.20;;;;;;;17.18;31.31;101564.19;7399498;19;20011;-57
2024/01/09 05:36:37;;;;;;;0.20;0.20;;;;;;;16.79;31.65;101571.78;7398963;19;20819;-57
2024/01/09 05:39:03;;;;;;;3.35;0.52;;;;;;;16.98;31.43;101561.22;7397754;19;20002;-57
2024/01/09 05:41:29;;;;;;;0.40;0.20;;;;;;;17.63;30.76;101566.69;7397592;19;20323;-57
2024/01/09 05:43:57;;;;;;;0.88;0.88;;;;;;;17.47;30.97;101569.94;7399055;19;20015;-57
2024/01/09 05:46:23;;;;;;;0.10;0.10;;;;;;;17.35;30.79;101573.75;7399941;19;20019;-57
2024/01/09 05:48:49;;;;;;;0.40;0.40;;;;;;;17.55;31.14;101573.19;7398184;19;20362;-58
2024/01/09 05:51:15;;;;;;;2.05;1.27;;;;;;;17.56;31.06;101578.34;7397133;19;20048;-57
2024/01/09 05:53:42;;;;;;;0.30;0.30;;;;;;;17.42;31.20;101579.03;7399364;19;20343;-57
2024/01/09 05:56:08;;;;;;;0.20;0.20;;;;;;;17.66;30.92;101577.00;7393553;19;20093;-57
2024/01/09 05:58:34;;;;;;;0.57;0.57;;;;;;;16.85;31.75;101574.75;7397987;19;20015;-57
2024/01/09 06:01:00;;;;;;;0.35;0.35;;;;;;;17.35;31.10;101573.75;7397414;19;20517;-57
2024/01/09 06:03:26;;;;;;;0.10;0.10;;;;;;;17.79;31.05;101571.09;7397811;19;20037;-57
2024/01/09 06:05:52;;;;;;;9.30;0.47;;;;;;;18.11;30.40;101582.19;7396845;19;20477;-57
2024/01/09 06:08:19;;;;;;;0.20;0.20;;;;;;;18.46;30.44;101575.88;7396497;19;20014;-57
2024/01/09 06:10:45;;;;;;;0.28;0.28;;;;;;;18.37;30.35;101573.13;7396594;19;20010;-57
2024/01/09 06:13:11;;;;;;;1.08;0.50;;;;;;;18.43;30.40;101577.59;7397473;19;20042;-57
2024/01/09 06:15:37;;;;;;;1.60;0.73;;;;;;;18.29;30.69;101584.03;7394444;19;20432;-57
2024/01/09 06:18:04;;;;;;;0.17;0.17;;;;;;;20.41;28.58;101574.97;7397020;19;20006;-57
2024/01/09 06:20:30;;;;;;;2.05;1.42;;;;;;;18.32;30.14;101577.41;7397689;19;20014;-57
2024/01/09 06:22:56;;;;;;;8.25;0.85;;;;;;;19.42;29.33;101578.31;7396971;19;20013;-57
2024/01/09 06:25:22;;;;;;;0.20;0.20;;;;;;;19.07;29.61;101580.38;7400229;19;20014;-57
2024/01/09 06:27:48;;;;;;;0.22;0.17;;;;;;;21.98;27.12;101563.91;7397303;19;20033;-57
2024/01/09 06:30:14;;;;;;;0.10;0.10;;;;;;;23.08;25.98;101565.91;7396520;19;20475;-57
2024/01/09 06:32:40;;;;;;;0.20;0.20;;;;;;;22.64;26.29;101572.47;7395872;19;20073;-57
2024/01/09 06:35:07;;;;;;;9.15;1.35;;;;;;;22.69;26.14;101562.38;7398352;19;20030;-57
2024/01/09 06:37:33;;;;;;;0.13;0.13;;;;;;;22.97;25.87;101571.63;7395011;19;20463;-57
2024/01/09 06:40:00;;;;;;;1.15;0.43;;;;;;;23.76;25.58;101574.41;7394996;19;20010;-57
2024/01/09 06:42:26;;;;;;;0.60;0.35;;;;;;;23.29;25.59;101578.50;7394425;19;20014;-57
2024/01/09 06:44:52;;;;;;;0.17;0.17;;;;;;;23.39;25.70;101565.53;7398281;19;20489;-57
2024/01/09 06:47:18;;;;;;;0.20;0.10;;;;;;;23.46;25.67;101570.69;7398750;19;20046;-57
2024/01/09 06:49:44;;;;;;;2.47;0.57;;;;;;;23.55;25.10;101570.41;7395089;19;20420;-57
2024/01/09 06:52:10;;;;;;;0.10;0.10;;;;;;;23.92;25.16;101579.25;7395639;19;20014;-57
2024/01/09 06:54:36;;;;;;;0.68;0.68;;;;;;;23.72;24.87;101571.06;7397691;19;20093;-57
2024/01/09 06:57:02;;;;;;;0.20;0.20;;;;;;;23.26;25.34;101574.63;7395456;19;20015;-57
2024/01/09 06:59:29;;;;;;;0.30;0.30;;;;;;;23.08;25.79;101568.75;7395243;19;20014;-57
2024/01/09 07:01:55;;;;;;;0.20;0.20;;;;;;;23.11;25.60;101577.00;7395564;19;20011;-57
2024/01/09 07:04:21;;;;;;;0.40;0.20;;;;;;;23.10;25.75;101583.22;7394734;19;20090;-57
2024/01/09 07:06:47;;;;;;;0.70;0.70;;;;;;;23.10;25.68;101581.16;7393695;19;20038;-57
2024/01/09 07:09:13;;;;;;;2.70;1.08;;;;;;;23.08;25.80;101580.13;7394867;19;20014;-57
2024/01/09 07:11:39;;;;;;;0.30;0.15;;;;;;;21.34;27.06;101578.91;7393841;19;20014;-57
2024/01/09 07:14:06;;;;;;;0.20;0.20;;;;;;;21.14;27.04;101577.78;7396650;19;20461;-57
2024/01/09 07:16:32;;;;;;;0.20;0.20;;;;;;;20.63;27.64;101588.50;7396881;19;20010;-57
2024/01/09 07:18:58;;;;;;;0.20;0.20;;;;;;;20.24;28.06;101586.16;7393523;19;20026;-57
2024/01/09 07:21:24;;;;;;;5.57;0.63;;;;;;;19.98;28.17;101591.00;7394871;19;20327;-57
2024/01/09 07:23:51;;;;;;;0.10;0.10;;;;;;;21.13;27.51;101601.75;7395680;19;20010;-57
2024/01/09 07:26:17;;;;;;;0.40;0.40;;;;;;;20.68;27.75;101585.72;7395066;19;20046;-57
2024/01/09 07:28:43;;;;;;;0.73;0.73;;;;;;;22.31;26.71;101581.75;7395106;19;20394;-57
2024/01/09 07:31:09;;;;;;;0.20;0.20;;;;;;;20.55;27.85;101588.22;7394367;19;20015;-57
2024/01/09 07:33:35;;;;;;;0.10;0.10;;;;;;;21.89;26.86;101593.31;7394993;19;20405;-57
2024/01/09 07:36:02;;;;;;;0.73;0.73;;;;;;;21.27;27.37;101597.16;7392653;19;20054;-57
2024/01/09 07:38:29;;;;;;;0.10;0.10;;;;;;;20.74;27.61;101600.72;7394120;19;20025;-57
2024/01/09 07:40:55;;;;;;;0.40;0.32;;;;;;;21.16;27.46;101608.44;7394759;19;20011;-57
2024/01/09 07:43:21;;;;;;;0.28;0.28;;;;;;;20.70;27.33;101603.00;7393972;19;20019;-57
2024/01/09 07:45:48;;;;;;;0.10;0.10;;;;;;;20.62;28.03;101604.72;7394618;19;20007;-57
2024/01/09 07:48:14;;;;;;;0.30;0.30;;;;;;;19.73;28.49;101605.88;7392731;19;20015;-57
2024/01/09 07:50:40;;;;;;;0.20;0.20;;;;;;;19.94;28.31;101612.31;7393649;19;20454;-57
2024/01/09 07:53:07;;;;;;;0.20;0.20;;;;;;;18.81;29.62;101619.03;7393506;19;20011;-57
2024/01/09 07:55:33;;;;;;;0.20;0.20;;;;;;;19.35;29.18;101617.50;7396804;19;20010;-57
2024/01/09 07:58:00;;;;;;;0.45;0.40;;;;;;;19.16;29.40;101614.16;7394069;19;20028;-57
2024/01/09 08:00:26;;;;;;;0.40;0.30;;;;;;;18.56;29.81;101620.41;7393468;19;20022;-56
2024/01/09 08:02:52;;;;;;;0.25;0.25;;;;;;;19.34;29.05;101619.53;7392384;19;20007;-57
2024/01/09 08:05:18;;;;;;;0.85;0.32;;;;;;;20.18;28.40;101626.94;7395556;19;20048;-57
2024/01/09 08:07:45;;;;;;;0.20;0.20;;;;;;;19.31;29.12;101629.00;7392284;19;20399;-57
2024/01/09 08:10:11;;;;;;;0.20;0.20;;;;;;;17.84;30.49;101630.41;7393311;19;20015;-57
2024/01/09 08:12:37;;;;;;;0.20;0.20;;;;;;;18.83;29.63;101633.44;7392577;19;20011;-57
2024/01/09 08:15:04;;;;;;;3.55;1.20;;;;;;;19.22;29.27;101626.31;7393075;19;20032;-57
2024/01/09 08:17:30;;;;;;;0.35;0.20;;;;;;;19.56;29.13;101638.84;7397146;19;20015;-57
2024/01/09 08:19:56;;;;;;;1.33;0.75;;;;;;;19.14;29.60;101641.34;7392874;19;20029;-56
2024/01/09 08:22:23;;;;;;;0.57;0.43;;;;;;;19.27;29.28;101642.56;7393382;19;20349;-57
2024/01/09 08:24:49;;;;;;;0.63;0.38;;;;;;;19.53;28.92;101637.78;7396445;19;20070;-56
2024/01/09 08:27:15;;;;;;;0.30;0.30;;;;;;;19.68;28.86;101641.31;7393422;19;20469;-57
2024/01/09 08:29:43;;;;;;;0.60;0.60;;;;;;;20.03;28.85;101637.59;7392549;19;20003;-56
2024/01/09 08:32:11;;;;;;;1.05;0.55;;;;;;;19.31;29.61;101642.34;7391886;19;20011;-56
2024/01/09 08:34:37;;;;;;;0.10;0.05;;;;;;;19.80;29.11;101652.75;7392560;19;20014;-56
2024/01/09 08:37:04;;;;;;;0.20;0.20;;;;;;;20.30;28.76;101645.63;7392451;19;20021;-57
2024/01/09 08:39:30;;;;;;;0.10;0.10;;;;;;;20.25;28.55;101651.97;7392356;19;20027;-56
2024/01/09 08:41:56;;;;;;;0.10;0.10;;;;;;;20.31;28.49;101644.34;7391631;19;20011;-56
2024/01/09 08:44:25;;;;;;;0.10;0.10;;;;;;;20.00;28.65;101655.56;7392203;19;20014;-56
2024/01/09 08:46:51;;;;;;;0.32;0.10;;;;;;;20.54;28.70;101654.59;7394808;19;20085;-57
2024/01/09 08:49:17;;;;;;;0.20;0.20;;;;;;;20.55;28.76;101658.97;7392113;19;20014;-57
2024/01/09 08:51:44;;;;;;;0.85;0.30;;;;;;;19.45;29.24;101662.09;7392614;19;20032;-57
2024/01/09 08:54:11;;;;;;;0.10;0.10;;;;;;;19.52;29.29;101670.16;7389137;19;20350;-52
2024/01/09 08:56:37;;;;;;;0.30;0.30;;;;;;;19.59;29.40;101664.09;7391644;19;20038;-52
2024/01/09 08:59:03;;;;;;;0.30;0.30;;;;;;;19.52;29.55;101667.31;7391254;19;20036;-52
2024/01/09 09:01:32;;;;;;;0.10;0.10;;;;;;;19.57;29.32;101668.66;7391070;19;20026;-52
2024/01/09 09:03:58;;;;;;;0.47;0.47;;;;;;;19.33;29.82;101663.19;7392269;19;20096;-51
2024/01/09 09:06:24;;;;;;;0.52;0.30;;;;;;;19.53;29.49;101668.88;7391585;19;20014;-52
2024/01/09 09:08:50;;;;;;;0.32;0.32;;;;;;;20.61;28.57;101659.81;7390181;19;20388;-53
2024/01/09 09:11:16;;;;;;;0.15;0.13;;;;;;;21.05;28.13;101662.25;7389712;19;20014;-54
2024/01/09 09:13:42;;;;;;;0.30;0.30;;;;;;;20.79;28.40;101665.09;7389984;19;20014;-52
2024/01/09 09:16:09;;;;;;;0.73;0.30;;;;;;;22.54;26.92;101656.34;7388337;19;20162;-52
2024/01/09 09:18:35;;;;;;;2.20;0.70;;;;;;;22.22;26.98;101660.72;7390172;19;20149;-53
2024/01/09 09:21:05;;;;;;;21.98;0.88;;;;;;;21.68;27.69;101663.59;7391377;19;20476;-53
2024/01/09 09:23:32;;;;;;;0.73;0.57;;;;;;;21.54;27.38;101666.63;7390781;19;20014;-53
2024/01/09 09:25:58;;;;;;;0.20;0.20;;;;;;;22.34;26.75;101657.38;7395575;19;20038;-52
2024/01/09 09:28:24;;;;;;;0.30;0.30;;;;;;;22.14;27.13;101662.47;7397402;19;20025;-52
2024/01/09 09:30:50;;;;;;;0.10;0.10;;;;;;;23.53;25.86;101661.16;7398079;19;20042;-52
2024/01/09 09:33:16;;;;;;;0.30;0.30;;;;;;;23.46;25.84;101658.84;7399034;19;20014;-53
2024/01/09 09:35:42;;;;;;;0.35;0.20;;;;;;;23.93;25.73;101654.78;7399776;19;20074;-55
2024/01/09 09:38:09;;;;;;;0.10;0.10;;;;;;;24.59;24.96;101658.50;7398036;19;20039;-52
2024/01/09 09:40:35;;;;;;;0.25;0.25;;;;;;;24.34;25.06;101654.03;7398023;19;20040;-53
2024/01/09 09:43:02;;;;;;;0.40;0.40;;;;;;;24.29;25.29;101654.84;7398049;19;20019;-52
2024/01/09 09:45:32;;;;;;;0.10;0.10;;;;;;;24.04;25.60;101648.22;7400465;19;20027;-52
2024/01/09 09:48:00;;;;;;;0.30;0.30;;;;;;;23.57;25.50;101653.13;7402360;19;20014;-53
2024/01/09 09:50:28;;;;;;;0.57;0.57;;;;;;;22.69;26.74;101661.81;7396944;19;20523;-53
2024/01/09 09:52:56;;;;;;;0.77;0.77;;;;;;;22.14;27.07;101651.91;7397049;19;20014;-52
2024/01/09 09:55:22;;;;;;;0.15;0.15;;;;;;;22.08;26.76;101653.19;7399157;19;20050;-52
2024/01/09 09:57:48;;;;;;;0.30;0.17;;;;;;;21.89;27.20;101652.88;7399873;19;20017;-53
2024/01/09 10:00:15;;;;;;;1.15;0.40;;;;;;;22.08;26.97;101650.34;7397101;19;20074;-52
2024/01/09 10:02:48;;;;;;;0.15;0.15;;;;;;;21.57;27.47;101648.63;7395685;19;20759;-53
2024/01/09 10:05:16;;;;;;;2.65;0.32;;;;;;;21.69;27.22;101650.19;7399627;19;20017;-52
2024/01/09 10:07:45;;;;;;;0.57;0.40;;;;;;;22.05;26.94;101649.31;7395093;19;20405;-52
2024/01/09 10:10:12;;;;;;;0.30;0.30;;;;;;;21.84;27.44;101657.25;7396454;19;20023;-53
2024/01/09 10:12:39;;;;;;;1.17;0.35;;;;;;;22.06;26.97;101661.44;7396697;19;20029;-52
2024/01/09 10:15:12;;;;;;;8.32;0.43;;;;;;;22.11;27.02;101647.25;7397734;19;20006;-55
2024/01/09 10:17:40;;;;;;;2.33;1.55;;;;;;;21.95;27.09;101656.50;7400148;19;20014;-52
2024/01/09 10:20:08;;;;;;;6.22;1.35;;;;;;;21.93;27.45;101644.13;7394668;19;20350;-52
2024/01/09 10:22:37;;;;;;;0.30;0.30;;;;;;;22.56;26.83;101643.19;7396142;19;20082;-52
2024/01/09 10:25:04;;;;;;;0.93;0.90;;;;;;;22.87;26.72;101638.56;7397988;19;20015;-52
2024/01/09 10:27:36;;;;;;;1.27;0.68;;;;;;;22.99;26.12;101640.88;7396388;19;20018;-52
2024/01/09 10:30:03;;;;;;;;;;;;;;;23.36;26.13;101646.22;7396262;19;20653;-52
2024/01/09 10:32:34;;;;;;;0.30;0.20;;;;;;;22.78;26.71;101653.03;7395809;19;20271;-52
2024/01/09 10:35:05;;;;;;;0.10;0.10;;;;;;;22.82;26.18;101640.13;7396680;19;20010;-52
2024/01/09 10:37:32;;;;;;;0.75;0.57;;;;;;;23.27;26.22;101660.69;7394616;19;20018;-52
2024/01/09 10:39:59;;;;;;;0.38;0.38;;;;;;;23.07;26.04;101658.16;7394408;19;20015;-53
2024/01/09 10:42:27;;;;;;;1.00;0.88;;;;;;;23.15;25.79;101656.34;7393935;19;20006;-53
2024/01/09 10:44:58;;;;;;;0.20;0.20;;;;;;;22.80;26.42;101654.06;7397168;19;20006;-53
2024/01/09 10:47:24;;;;;;;0.10;0.10;;;;;;;22.83;26.06;101652.22;7394085;19;20018;-53
2024/01/09 10:49:51;;;;;;;0.30;0.30;;;;;;;22.73;26.49;101656.63;7395239;19;20465;-52
2024/01/09 10:55:10;;;;;;;1.33;0.85;;;;;;;22.24;26.80;101653.22;7399847;19;20023;-96
2024/01/09 10:57:37;;;;;;;0.32;0.15;;;;;;;22.69;26.08;101650.44;7409594;19;20021;-93
2024/01/09 11:00:08;;;;;;;0.35;0.35;;;;;;;23.69;25.41;101657.47;7392522;19;20062;-91
2024/01/09 11:02:36;;;;;;;0.10;0.10;;;;;;;21.98;27.04;101652.66;7390373;19;20338;-91
2024/01/09 11:05:04;;;;;;;0.68;0.68;;;;;;;21.73;27.00;101656.41;7395061;19;20028;-92
2024/01/09 11:07:31;;;;;;;0.63;0.63;;;;;;;22.14;26.94;101654.75;7391440;19;20354;-93
2024/01/09 11:09:59;;;;;;;0.10;0.10;;;;;;;21.88;26.95;101657.00;7394000;19;20090;-93
2024/01/09 11:12:30;;;;;;;0.73;0.73;;;;;;;22.19;26.76;101648.31;7391448;19;20022;-94
2024/01/09 11:15:08;;;;;;;0.10;0.10;;;;;;;21.37;27.24;101660.09;7396061;19;20010;-91
2024/01/09 11:17:37;;;;;;;0.10;0.10;;;;;;;21.57;27.34;101648.63;7392977;19;20030;-93
2024/01/09 11:20:08;;;;;;;2.63;2.20;;;;;;;21.13;27.66;101655.59;7393652;19;20050;-90
2024/01/09 11:22:36;;;;;;;0.10;0.10;;;;;;;21.01;27.48;101662.41;7391949;19;20365;-94
2024/01/09 11:25:17;;;;;;;0.40;0.40;;;;;;;20.43;28.24;101660.16;7395936;19;20018;-91